Time;durP1;ratioP1;P1;durP2;ratioP2;P2;SDS_P1;SDS_P2;PMS_P1;PMS_P2;Temp;Humidity;BMP_temperature;BMP_pressure;BME280_temperature;BME280_humidity;BME280_pressure;Samples;Min_cycle;Max_cycle;Signal;HPM_P1;HPM_P2
2022/11/15 00:00:14;;;;;;;4.95;3.03;;;;;;;12.46;61.87;99628.38;1086873;54;20042;-82
2022/11/15 00:01:18;;;;;;;6.18;3.10;;;;;;;12.48;61.76;99628.19;1086691;54;20050;-79
2022/11/15 00:02:24;;;;;;;5.68;3.20;;;;;;;12.47;61.38;99624.69;1087365;39;20420;-79
2022/11/15 00:03:27;;;;;;;5.25;2.85;;;;;;;12.58;61.33;99623.50;1087078;46;20039;-79
2022/11/15 00:04:40;;;;;;;7.10;2.60;;;;;;;12.68;60.76;99625.19;1086552;54;20037;-79
2022/11/15 00:05:43;;;;;;;5.00;2.60;;;;;;;12.74;60.83;99619.16;1086884;54;20038;-81
2022/11/15 00:06:47;;;;;;;5.28;2.75;;;;;;;12.76;60.98;99619.81;1086935;54;20026;-80
2022/11/15 00:07:53;;;;;;;5.75;2.45;;;;;;;12.78;60.73;99617.78;1087683;39;20086;-80
2022/11/15 00:08:57;;;;;;;4.93;2.60;;;;;;;12.63;61.00;99615.81;1086679;54;20041;-79
2022/11/15 00:10:00;;;;;;;5.95;2.90;;;;;;;12.73;60.85;99612.13;1086728;54;20069;-79
2022/11/15 00:11:05;;;;;;;6.50;2.78;;;;;;;12.68;60.78;99612.63;1086753;54;20146;-79
2022/11/15 00:12:07;;;;;;;6.07;2.63;;;;;;;12.67;60.85;99612.78;1086439;54;20030;-80
2022/11/15 00:13:14;;;;;;;5.03;2.47;;;;;;;12.73;60.69;99612.13;1086116;54;20037;-79
2022/11/15 00:14:18;;;;;;;4.85;2.78;;;;;;;12.68;60.55;99606.41;1086589;54;20053;-78
2022/11/15 00:15:24;;;;;;;5.82;2.50;;;;;;;12.71;60.75;99601.53;1086695;54;20035;-80
2022/11/15 00:16:25;;;;;;;4.78;2.40;;;;;;;12.74;60.56;99606.56;1087435;39;20651;-81
2022/11/15 00:17:36;;;;;;;4.55;2.42;;;;;;;12.77;60.40;99606.25;1087033;54;20027;-81
2022/11/15 00:18:38;;;;;;;4.65;2.15;;;;;;;12.78;60.14;99607.06;1087575;39;20472;-81
2022/11/15 00:19:49;;;;;;;4.40;2.33;;;;;;;12.74;60.25;99611.09;1087741;46;20038;-81
2022/11/15 00:20:51;;;;;;;6.63;2.78;;;;;;;12.80;60.16;99605.06;1087235;47;20031;-81
2022/11/15 00:22:03;;;;;;;5.05;2.58;;;;;;;12.57;60.55;99616.47;1087049;54;20059;-80
2022/11/15 00:23:05;;;;;;;5.47;2.60;;;;;;;12.73;60.29;99617.47;1086465;54;20074;-81
2022/11/15 00:24:12;;;;;;;6.18;2.45;;;;;;;12.80;60.24;99607.75;1086882;54;20094;-80
2022/11/15 00:25:14;;;;;;;4.75;2.40;;;;;;;12.72;60.43;99607.75;1087336;54;20034;-81
2022/11/15 00:26:20;;;;;;;7.72;2.95;;;;;;;12.70;60.42;99602.56;1087899;46;20038;-81
2022/11/15 00:27:22;;;;;;;8.05;2.65;;;;;;;12.63;60.26;99610.44;1087299;54;20035;-80
2022/11/15 00:56:42;;;;;;;5.97;2.40;;;;;;;12.76;60.08;99599.19;1087379;54;20075;-79
2022/11/15 00:57:47;;;;;;;5.43;2.80;;;;;;;12.85;59.79;99588.44;1087613;54;20040;-79
2022/11/15 00:58:52;;;;;;;4.35;2.30;;;;;;;12.75;60.10;99594.00;1087504;54;20062;-79
2022/11/15 00:59:53;;;;;;;5.80;2.25;;;;;;;12.73;60.42;99590.66;1087668;54;20042;-78
2022/11/15 01:00:57;;;;;;;4.18;2.15;;;;;;;12.71;60.18;99595.34;1087605;47;20057;-78
2022/11/15 01:01:59;;;;;;;5.65;2.40;;;;;;;12.73;60.16;99590.66;1087593;54;20053;-79
2022/11/15 01:03:03;;;;;;;6.45;2.78;;;;;;;12.75;60.35;99591.34;1087540;54;20061;-79
2022/11/15 01:04:04;;;;;;;5.95;1.92;;;;;;;12.74;60.08;99595.03;1087524;54;20065;-78
2022/11/15 01:05:09;;;;;;;4.80;2.30;;;;;;;12.75;60.12;99588.66;1087658;54;20105;-78
2022/11/15 01:06:11;;;;;;;4.47;2.08;;;;;;;12.70;60.25;99591.00;1087583;54;20060;-79
2022/11/15 01:07:15;;;;;;;4.47;2.40;;;;;;;12.72;60.32;99587.13;1087591;54;20065;-78
2022/11/15 01:08:17;;;;;;;4.85;2.30;;;;;;;12.79;60.29;99581.91;1087676;46;20087;-79
2022/11/15 01:20:19;;;;;;;4.05;2.10;;;;;;;12.46;61.04;99561.34;1086682;54;20047;-80
2022/11/15 01:37:04;;;;;;;5.22;2.35;;;;;;;12.08;62.09;99541.44;1087310;54;20030;-80
2022/11/15 01:38:07;;;;;;;6.60;2.13;;;;;;;11.87;62.78;99553.44;1087584;54;20065;-79
2022/11/15 01:39:18;;;;;;;4.78;2.63;;;;;;;11.75;63.46;99554.75;1087565;54;20037;-80
2022/11/15 01:40:31;;;;;;;6.88;2.83;;;;;;;11.64;63.83;99556.72;1087553;54;20781;-80
2022/11/15 01:41:36;;;;;;;5.65;2.28;;;;;;;11.53;64.17;99552.53;1087571;54;20057;-80
2022/11/15 01:42:37;;;;;;;5.20;2.90;;;;;;;11.47;64.16;99553.19;1087395;54;20046;-79
2022/11/15 01:43:42;;;;;;;6.00;2.90;;;;;;;11.48;64.25;99562.88;1087544;54;20034;-80
2022/11/15 01:44:47;;;;;;;5.60;2.55;;;;;;;11.43;64.56;99557.19;1087523;54;20061;-80
2022/11/15 01:45:56;;;;;;;5.85;3.17;;;;;;;11.43;64.76;99549.16;1087508;47;20035;-80
2022/11/15 01:46:59;;;;;;;5.88;2.80;;;;;;;11.36;64.74;99550.81;1087907;47;20050;-80
2022/11/15 01:48:03;;;;;;;5.65;2.60;;;;;;;11.35;64.80;99546.47;1087625;54;20054;-80
2022/11/15 01:49:12;;;;;;;4.55;2.50;;;;;;;11.30;64.86;99557.66;1087456;54;20046;-80
2022/11/15 01:50:20;;;;;;;6.25;3.08;;;;;;;11.28;65.24;99548.09;1087976;47;20059;-80
2022/11/15 01:51:26;;;;;;;5.55;2.53;;;;;;;11.24;64.98;99547.59;1087504;54;20026;-80
2022/11/15 01:52:36;;;;;;;5.70;2.35;;;;;;;11.23;65.23;99548.59;1087536;54;20038;-79
2022/11/15 01:53:41;;;;;;;5.43;2.50;;;;;;;11.19;65.24;99552.56;1087592;54;20082;-80
2022/11/15 01:54:45;;;;;;;6.13;2.85;;;;;;;11.17;65.38;99552.75;1087542;54;20114;-79
2022/11/15 01:55:47;;;;;;;5.22;2.40;;;;;;;11.30;64.83;99549.63;1088860;47;20046;-79
2022/11/15 01:56:55;;;;;;;6.15;3.15;;;;;;;11.11;65.38;99547.19;1088089;47;20045;-80
2022/11/15 01:58:02;;;;;;;7.10;2.83;;;;;;;11.15;65.54;99545.84;1087520;54;20038;-80
2022/11/15 01:59:10;;;;;;;6.38;3.05;;;;;;;11.04;65.65;99547.00;1087563;54;20820;-79
2022/11/15 02:00:13;;;;;;;5.85;2.78;;;;;;;11.05;65.52;99544.16;1087932;54;20018;-79
2022/11/15 02:01:18;;;;;;;5.25;2.72;;;;;;;11.09;65.39;99544.69;1087763;54;20031;-79
2022/11/15 02:02:20;;;;;;;5.28;2.55;;;;;;;10.92;65.87;99543.75;1087759;54;20042;-79
2022/11/15 02:03:28;;;;;;;7.93;3.08;;;;;;;10.97;65.95;99541.44;1090026;46;20115;-80
2022/11/15 02:04:33;;;;;;;6.35;2.75;;;;;;;10.92;65.92;99539.25;1090592;39;20352;-80
2022/11/15 02:05:40;;;;;;;6.90;2.92;;;;;;;10.88;66.23;99543.25;1087898;54;20030;-80
2022/11/15 02:06:42;;;;;;;6.47;2.80;;;;;;;10.83;66.50;99542.03;1087885;54;20034;-79
2022/11/15 02:07:51;;;;;;;7.20;2.92;;;;;;;10.76;66.78;99542.69;1088546;46;20050;-80
2022/11/15 02:08:53;;;;;;;9.38;3.05;;;;;;;10.62;67.01;99548.59;1087291;54;20061;-79
2022/11/15 02:09:57;;;;;;;4.78;2.63;;;;;;;10.70;66.95;99545.97;1087355;54;20070;-79
2022/11/15 02:10:59;;;;;;;5.32;2.83;;;;;;;10.57;67.31;99541.06;1087378;54;20038;-79
2022/11/15 02:12:03;;;;;;;8.07;3.22;;;;;;;10.60;67.22;99539.91;1087328;54;20046;-80
2022/11/15 02:13:05;;;;;;;4.85;2.90;;;;;;;10.64;67.00;99538.59;1087702;54;20086;-79
2022/11/15 02:14:10;;;;;;;8.30;3.30;;;;;;;10.57;67.41;99538.38;1089833;46;20034;-79
2022/11/15 02:15:12;;;;;;;6.88;4.07;;;;;;;10.54;67.31;99537.88;1087785;54;20761;-79
2022/11/15 02:37:24;;;;;;;8.13;3.40;;;;;;;10.48;68.07;99509.94;1081990;54;20277;-79
2022/11/15 02:38:43;;;;;;;5.75;3.65;;;;;;;10.48;67.81;99511.78;1087356;46;20631;-81
2022/11/15 02:39:51;;;;;;;8.60;3.15;;;;;;;10.51;67.92;99520.31;1087480;46;20046;-81
2022/11/15 02:41:01;;;;;;;5.75;2.90;;;;;;;10.56;67.57;99514.50;1087803;46;20053;-80
2022/11/15 02:43:56;;;;;;;5.05;2.88;;;;;;;10.64;67.17;99519.88;1087237;54;20027;-79
2022/11/15 02:45:01;;;;;;;5.05;2.65;;;;;;;10.65;67.11;99515.38;1087144;54;20022;-80
2022/11/15 02:46:08;;;;;;;4.43;2.53;;;;;;;10.68;66.89;99513.22;1087566;46;20054;-81
2022/11/15 02:47:18;;;;;;;5.15;2.60;;;;;;;10.63;67.30;99514.72;1087451;46;20038;-80
2022/11/15 02:48:23;;;;;;;5.72;2.72;;;;;;;10.73;67.13;99502.91;1088247;46;20046;-81
2022/11/15 02:49:36;;;;;;;8.55;3.10;;;;;;;10.75;67.04;99500.06;1087581;39;20573;-79
2022/11/15 02:50:38;;;;;;;5.07;2.72;;;;;;;10.82;66.68;99502.94;1088250;46;20022;-81
2022/11/15 03:29:07;;;;;;;6.95;3.45;;;;;;;10.43;68.13;99481.00;1088002;54;20038;-79
2022/11/15 03:30:38;;;;;;;4.93;2.88;;;;;;;10.36;68.15;99477.25;1087604;54;20345;-79
2022/11/15 03:31:47;;;;;;;5.13;2.92;;;;;;;10.47;68.07;99478.03;1089106;39;20266;-79
2022/11/15 03:33:02;;;;;;;7.00;3.28;;;;;;;10.43;67.95;99473.00;1087679;54;20038;-79
2022/11/15 03:34:08;;;;;;;5.93;3.00;;;;;;;10.42;68.23;99475.84;1087767;46;20050;-80
2022/11/15 03:35:15;;;;;;;6.07;3.30;;;;;;;10.43;67.96;99473.00;1087659;54;20041;-79
2022/11/15 03:36:17;;;;;;;5.38;3.03;;;;;;;10.43;68.08;99470.31;1087728;54;20098;-79
2022/11/15 03:37:24;;;;;;;5.38;3.08;;;;;;;10.50;68.28;99475.03;1087754;54;20034;-79
2022/11/15 03:38:29;;;;;;;5.32;2.70;;;;;;;10.60;67.92;99473.06;1087641;54;20034;-80
2022/11/15 03:39:33;;;;;;;5.20;2.83;;;;;;;10.64;67.60;99463.75;1088472;46;20081;-80
2022/11/15 03:40:38;;;;;;;5.40;2.60;;;;;;;10.68;67.73;99464.28;1087444;54;20038;-79
2022/11/15 03:41:48;;;;;;;6.03;3.30;;;;;;;10.57;68.02;99463.53;1087531;54;20046;-80
2022/11/15 03:42:57;;;;;;;6.20;3.70;;;;;;;10.51;68.09;99461.53;1087590;54;20034;-80
2022/11/15 03:44:11;;;;;;;6.72;3.53;;;;;;;10.45;68.34;99470.16;1087505;54;20053;-80
2022/11/15 03:45:20;;;;;;;5.70;3.10;;;;;;;10.41;68.44;99464.28;1089100;46;20034;-79
2022/11/15 03:46:27;;;;;;;7.43;3.70;;;;;;;10.39;68.55;99468.13;1087526;54;20022;-80
2022/11/15 03:47:37;;;;;;;7.43;3.90;;;;;;;10.42;68.26;99463.28;1087609;54;20111;-79
2022/11/15 03:48:44;;;;;;;6.53;3.08;;;;;;;10.33;68.49;99469.56;1087584;54;20026;-79
2022/11/15 03:49:54;;;;;;;6.88;3.33;;;;;;;10.36;68.71;99466.56;1087587;54;20041;-79
2022/11/15 03:50:56;;;;;;;6.50;4.00;;;;;;;10.37;68.49;99467.41;1087480;54;20859;-79
2022/11/15 03:52:01;;;;;;;4.93;2.95;;;;;;;10.38;68.57;99464.63;1087545;54;20078;-79
2022/11/15 03:53:03;;;;;;;6.18;3.38;;;;;;;10.33;68.48;99464.22;1088324;46;20045;-79
2022/11/15 03:54:07;;;;;;;6.90;3.72;;;;;;;10.35;68.61;99456.88;1087549;54;20077;-79
2022/11/15 03:55:12;;;;;;;6.38;3.22;;;;;;;10.26;68.61;99466.66;1087550;54;20034;-80
2022/11/15 03:56:16;;;;;;;6.82;3.45;;;;;;;10.25;68.76;99461.50;1087508;54;20037;-79
2022/11/15 03:57:18;;;;;;;9.05;3.75;;;;;;;10.19;69.22;99457.59;1087561;54;20038;-80
2022/11/15 03:58:22;;;;;;;6.28;3.28;;;;;;;10.18;69.05;99463.13;1087601;54;20085;-80
2022/11/15 03:59:23;;;;;;;5.57;3.20;;;;;;;10.17;69.33;99464.09;1087557;54;20750;-79
2022/11/15 04:00:28;;;;;;;7.28;3.22;;;;;;;10.17;69.42;99464.09;1087455;54;20030;-80
2022/11/15 04:01:32;;;;;;;7.15;3.10;;;;;;;10.11;69.37;99466.41;1087616;54;20034;-80
2022/11/15 04:02:36;;;;;;;6.20;3.55;;;;;;;10.07;69.62;99461.53;1087465;54;20054;-79
2022/11/15 04:03:37;;;;;;;5.97;3.35;;;;;;;10.07;69.83;99473.06;1087463;54;20074;-79
2022/11/15 04:04:42;;;;;;;5.60;2.83;;;;;;;10.12;69.46;99470.75;1087434;54;20041;-80
2022/11/15 04:05:43;;;;;;;6.60;3.75;;;;;;;10.05;69.52;99474.22;1087468;54;20050;-79
2022/11/15 04:06:48;;;;;;;6.50;3.42;;;;;;;10.02;69.65;99464.66;1087492;54;20054;-79
2022/11/15 04:07:49;;;;;;;7.97;4.10;;;;;;;10.00;69.76;99466.66;1087618;54;20061;-79
2022/11/15 04:08:53;;;;;;;6.75;3.85;;;;;;;10.05;69.99;99463.53;1087600;54;20031;-80
2022/11/15 04:10:05;;;;;;;5.75;3.20;;;;;;;10.07;69.52;99467.72;1087567;54;20038;-79
2022/11/15 04:11:09;;;;;;;6.50;3.60;;;;;;;10.14;69.55;99462.59;1087718;54;20014;-78
2022/11/15 04:12:10;;;;;;;5.90;3.50;;;;;;;10.17;69.35;99461.44;1088753;46;20034;-79
2022/11/15 04:13:14;;;;;;;5.72;3.47;;;;;;;10.15;69.42;99461.59;1087579;54;20086;-79
2022/11/15 04:14:16;;;;;;;8.27;3.75;;;;;;;10.24;69.28;99459.81;1087533;54;20077;-79
2022/11/15 04:15:22;;;;;;;5.75;3.20;;;;;;;10.24;69.06;99458.00;1087556;54;20103;-79
2022/11/15 04:16:24;;;;;;;6.90;3.45;;;;;;;10.11;69.38;99457.56;1087470;54;20034;-80
2022/11/15 04:17:30;;;;;;;7.20;3.65;;;;;;;10.06;69.85;99465.22;1087455;54;20081;-78
2022/11/15 04:18:35;;;;;;;7.85;4.03;;;;;;;10.00;70.05;99464.00;1087477;54;20035;-79
2022/11/15 04:24:44;;;;;;;6.38;3.78;;;;;;;9.99;70.22;99465.81;1087484;54;20725;-79
2022/11/15 04:25:50;;;;;;;6.10;3.95;;;;;;;10.13;69.95;99459.06;1087418;54;20788;-79
2022/11/15 04:26:54;;;;;;;7.03;3.65;;;;;;;10.24;69.35;99452.66;1087540;54;20057;-79
2022/11/15 04:27:55;;;;;;;6.05;3.53;;;;;;;10.35;69.15;99453.34;1087421;54;20046;-78
2022/11/15 04:30:16;;;;;;;5.97;3.80;;;;;;;10.42;68.92;99455.28;1087467;54;20034;-79
2022/11/15 04:31:17;;;;;;;6.95;3.80;;;;;;;10.43;68.84;99451.63;1087811;46;20023;-78
2022/11/15 04:32:21;;;;;;;6.63;3.17;;;;;;;10.54;68.76;99447.00;1087527;54;20082;-78
2022/11/15 04:33:28;;;;;;;5.10;3.13;;;;;;;10.58;68.36;99445.69;1088098;46;20022;-79
2022/11/15 04:34:30;;;;;;;5.20;2.72;;;;;;;10.61;68.24;99448.03;1087553;54;20042;-79
2022/11/15 04:35:34;;;;;;;5.60;2.95;;;;;;;10.56;68.67;99453.03;1087712;54;20026;-78
2022/11/15 04:37:52;;;;;;;6.78;3.78;;;;;;;10.39;68.87;99447.56;1087513;54;20057;-79
2022/11/15 04:38:56;;;;;;;7.47;3.13;;;;;;;10.44;69.08;99447.94;1087603;54;20030;-79
2022/11/15 04:39:58;;;;;;;6.45;3.33;;;;;;;10.44;68.69;99452.44;1087476;54;20022;-79
2022/11/15 04:41:02;;;;;;;6.22;3.70;;;;;;;10.56;68.71;99455.69;1087401;54;20061;-78
2022/11/15 04:42:03;;;;;;;5.40;2.63;;;;;;;10.64;68.34;99442.38;1091026;39;20360;-79
2022/11/15 04:43:13;;;;;;;5.55;2.83;;;;;;;10.70;68.35;99446.25;1087533;54;20039;-81
2022/11/15 04:44:19;;;;;;;6.05;2.88;;;;;;;10.71;68.40;99443.41;1086060;54;20061;-80
2022/11/15 04:45:27;;;;;;;5.38;2.80;;;;;;;10.67;68.15;99439.38;1086420;46;20026;-80
2022/11/15 04:46:30;;;;;;;5.90;3.28;;;;;;;10.61;68.56;99448.03;1086464;54;20038;-80
2022/11/15 04:47:34;;;;;;;7.35;3.20;;;;;;;10.56;68.67;99445.00;1086142;54;20026;-80
2022/11/15 04:48:38;;;;;;;6.13;3.45;;;;;;;10.50;68.83;99453.63;1086485;47;20544;-81
2022/11/15 04:49:45;;;;;;;5.72;3.30;;;;;;;10.56;68.42;99450.34;1085729;54;20038;-81
2022/11/15 04:50:47;;;;;;;6.63;3.60;;;;;;;10.55;68.38;99443.31;1086268;46;20575;-79
2022/11/15 04:51:53;;;;;;;6.60;3.28;;;;;;;10.69;68.55;99437.38;1086014;54;20038;-79
2022/11/15 04:52:58;;;;;;;5.80;2.92;;;;;;;10.77;67.87;99440.06;1086239;54;20214;-79
2022/11/15 04:53:59;;;;;;;5.03;2.85;;;;;;;10.82;67.99;99433.41;1086217;54;20050;-81
2022/11/15 04:55:03;;;;;;;5.22;3.00;;;;;;;10.84;67.88;99431.44;1086577;46;20098;-81
2022/11/15 04:56:07;;;;;;;6.45;3.22;;;;;;;10.77;67.78;99426.69;1085896;54;20072;-80
2022/11/15 04:57:11;;;;;;;5.28;2.90;;;;;;;10.81;68.06;99427.25;1086123;54;20720;-81
2022/11/15 04:58:13;;;;;;;5.68;3.03;;;;;;;10.86;67.80;99427.59;1086159;54;20056;-81
2022/11/15 04:59:17;;;;;;;5.28;3.05;;;;;;;10.80;67.67;99422.03;1086946;39;20487;-81
2022/11/15 05:00:19;;;;;;;6.82;2.83;;;;;;;10.67;68.30;99435.84;1085775;54;20046;-82
2022/11/15 05:01:23;;;;;;;6.45;3.35;;;;;;;10.63;68.45;99424.66;1085515;54;20102;-80
2022/11/15 05:04:18;;;;;;;8.88;3.70;;;;;;;10.72;68.18;99426.34;1085926;47;20670;-80
2022/11/15 05:05:14;;;;;;;5.35;2.88;;;;;;;10.80;67.73;99425.56;1085987;54;20627;-82
2022/11/15 05:06:21;;;;;;;;;;;;;;;10.70;67.94;99420.34;1086265;54;20540;-80
2022/11/15 05:07:48;;;;;;;9.02;3.63;;;;;;;10.64;67.94;99423.66;1085762;54;19969;-81
2022/11/15 05:11:06;;;;;;;8.48;3.35;;;;;;;10.61;67.99;99421.28;1085858;54;20042;-82
2022/11/15 05:12:27;;;;;;;6.43;3.28;;;;;;;10.58;68.45;99421.63;1086004;39;20628;-80
2022/11/15 05:13:37;;;;;;;5.00;2.95;;;;;;;10.55;68.53;99420.09;1085786;54;20149;-81
2022/11/15 05:16:21;;;;;;;5.82;2.92;;;;;;;10.58;68.44;99419.78;1085762;39;20507;-81
2022/11/15 05:17:37;;;;;;;6.30;3.90;;;;;;;10.63;68.18;99421.16;1085326;54;20711;-80
2022/11/15 05:18:48;;;;;;;6.50;3.05;;;;;;;10.60;68.33;99414.28;1085568;54;20053;-81
2022/11/15 05:20:13;;;;;;;6.03;3.00;;;;;;;10.67;67.88;99414.47;1085228;54;20042;-81
2022/11/15 05:21:26;;;;;;;5.97;3.08;;;;;;;10.71;68.06;99411.31;1085418;54;20063;-80
2022/11/15 05:22:46;;;;;;;5.10;2.70;;;;;;;10.77;67.79;99416.00;1085133;54;20042;-79
2022/11/15 05:23:55;;;;;;;4.80;2.78;;;;;;;10.72;67.83;99413.00;1085327;54;20079;-80
2022/11/15 05:25:07;;;;;;;6.05;3.35;;;;;;;10.64;68.01;99412.97;1085488;54;20764;-81
2022/11/15 05:26:12;;;;;;;5.57;3.08;;;;;;;10.64;68.20;99410.28;1085362;54;20042;-81
2022/11/15 05:27:19;;;;;;;6.63;3.50;;;;;;;10.74;67.84;99410.16;1085426;54;20094;-81
2022/11/15 05:28:23;;;;;;;4.95;2.85;;;;;;;10.73;67.83;99420.03;1084518;54;20038;-79
2022/11/15 05:29:29;;;;;;;7.53;3.17;;;;;;;10.71;67.84;99410.50;1085721;54;20066;-80
2022/11/15 05:30:31;;;;;;;5.68;3.22;;;;;;;10.77;67.89;99418.69;1085791;54;20722;-81
2022/11/15 05:32:39;;;;;;;4.85;2.85;;;;;;;10.87;67.44;99412.38;1087212;46;20046;-86
2022/11/15 05:33:42;;;;;;;5.68;2.92;;;;;;;10.90;67.65;99404.03;1087179;54;20044;-85
2022/11/15 05:34:46;;;;;;;6.88;3.25;;;;;;;10.92;67.50;99404.72;1087459;54;20031;-86
2022/11/15 05:35:57;;;;;;;5.88;3.20;;;;;;;10.93;67.27;99403.72;1087523;54;20035;-83
2022/11/15 05:37:02;;;;;;;5.05;3.10;;;;;;;10.93;67.59;99409.06;1087505;54;20031;-86
2022/11/15 05:38:03;;;;;;;5.13;2.50;;;;;;;10.92;67.48;99408.22;1087591;54;20038;-83
2022/11/15 05:39:09;;;;;;;5.25;2.70;;;;;;;10.88;67.51;99403.34;1087648;54;20098;-86
2022/11/15 05:40:10;;;;;;;5.70;3.00;;;;;;;10.76;67.83;99405.47;1087616;54;20061;-85
2022/11/15 05:41:16;;;;;;;5.88;3.28;;;;;;;10.64;68.52;99402.28;1091492;39;20673;-86
2022/11/15 05:42:18;;;;;;;6.90;3.47;;;;;;;10.70;68.42;99400.78;1087493;54;20057;-86
2022/11/15 05:43:23;;;;;;;6.22;3.63;;;;;;;10.72;68.25;99394.28;1087647;54;20034;-84
2022/11/15 05:44:26;;;;;;;6.03;2.88;;;;;;;10.78;67.97;99400.81;1087543;54;20046;-84
2022/11/15 05:45:30;;;;;;;5.28;3.15;;;;;;;10.82;68.14;99404.81;1087477;54;20030;-85
2022/11/15 05:46:33;;;;;;;6.07;3.30;;;;;;;10.81;68.13;99394.31;1087534;54;20030;-85
2022/11/15 05:47:40;;;;;;;7.57;3.83;;;;;;;10.74;68.42;99400.31;1087491;54;20031;-84
2022/11/15 05:48:45;;;;;;;6.20;3.70;;;;;;;10.69;68.66;99405.28;1089452;39;20601;-84
2022/11/15 05:49:51;;;;;;;10.40;3.45;;;;;;;10.71;68.88;99397.13;1087516;54;20041;-85
2022/11/15 05:50:56;;;;;;;6.45;3.28;;;;;;;10.70;69.04;99403.47;1087504;54;20042;-84
2022/11/15 05:52:01;;;;;;;6.85;3.88;;;;;;;10.61;69.02;99399.91;1087471;54;20027;-85
2022/11/15 05:53:03;;;;;;;8.05;3.63;;;;;;;10.59;69.29;99404.56;1087582;54;20030;-84
2022/11/15 05:54:07;;;;;;;8.52;3.58;;;;;;;10.58;69.23;99400.25;1088987;39;21013;-85
2022/11/15 05:55:09;;;;;;;6.70;3.30;;;;;;;10.58;69.55;99401.06;1087552;54;20065;-85
2022/11/15 05:56:16;;;;;;;5.50;3.13;;;;;;;10.56;69.23;99399.56;1087515;54;20031;-84
2022/11/15 05:57:18;;;;;;;7.25;3.42;;;;;;;10.54;69.57;99406.91;1087500;54;20060;-84
2022/11/15 05:58:23;;;;;;;6.47;3.30;;;;;;;10.49;69.94;99406.53;1087477;54;20030;-85
2022/11/15 05:59:24;;;;;;;6.35;3.42;;;;;;;10.43;70.03;99414.19;1087481;54;20039;-84
2022/11/15 06:00:29;;;;;;;7.35;3.90;;;;;;;10.37;70.17;99408.63;1087557;54;20038;-83
2022/11/15 06:01:30;;;;;;;8.35;4.47;;;;;;;10.27;71.03;99412.25;1087470;54;20039;-85
2022/11/15 06:02:35;;;;;;;10.60;4.57;;;;;;;10.26;71.14;99407.06;1090980;39;20649;-84
2022/11/15 06:03:36;;;;;;;9.13;4.38;;;;;;;10.24;71.20;99403.72;1087508;54;20046;-86
2022/11/15 06:04:40;;;;;;;7.07;4.00;;;;;;;10.25;71.16;99406.22;1087526;54;20018;-84
2022/11/15 06:05:42;;;;;;;6.57;4.00;;;;;;;10.27;70.78;99409.56;1087522;54;20049;-85
2022/11/15 06:06:48;;;;;;;7.72;4.60;;;;;;;10.25;70.85;99406.22;1087457;54;20026;-84
2022/11/15 06:07:50;;;;;;;8.82;4.35;;;;;;;10.26;70.83;99401.72;1087480;54;20034;-85
2022/11/15 06:08:54;;;;;;;7.50;3.72;;;;;;;10.29;71.03;99406.75;1087607;54;20034;-85
2022/11/15 06:09:56;;;;;;;6.95;3.67;;;;;;;10.30;70.94;99408.41;1088272;46;20039;-85
2022/11/15 06:11:06;;;;;;;6.53;3.70;;;;;;;10.30;70.87;99414.59;1087548;54;20027;-85
2022/11/15 06:12:07;;;;;;;7.53;3.83;;;;;;;10.28;70.71;99411.25;1087506;54;20054;-86
2022/11/15 06:13:11;;;;;;;7.20;4.25;;;;;;;10.22;71.07;99403.88;1087507;54;20275;-84
2022/11/15 06:14:13;;;;;;;7.07;3.83;;;;;;;10.22;71.19;99416.38;1087532;54;20784;-85
2022/11/15 06:15:17;;;;;;;7.00;3.90;;;;;;;10.24;71.17;99404.56;1087533;54;20031;-84
2022/11/15 06:16:18;;;;;;;7.85;4.85;;;;;;;10.21;71.00;99409.34;1087474;54;20038;-84
2022/11/15 06:17:22;;;;;;;8.32;5.20;;;;;;;10.19;71.35;99398.84;1087437;54;20031;-82
2022/11/15 06:18:24;;;;;;;10.98;5.28;;;;;;;10.20;71.44;99407.72;1087402;54;20042;-84
2022/11/15 06:19:32;;;;;;;6.85;4.07;;;;;;;10.22;71.04;99411.91;1087500;54;20031;-85
2022/11/15 06:20:34;;;;;;;8.02;4.40;;;;;;;10.19;71.46;99412.19;1087535;54;20030;-86
2022/11/15 06:21:38;;;;;;;9.57;4.43;;;;;;;10.15;71.43;99406.34;1087506;54;20030;-85
2022/11/15 06:22:42;;;;;;;8.93;4.97;;;;;;;10.10;72.04;99406.00;1087460;54;20065;-85
2022/11/15 06:23:46;;;;;;;12.35;6.40;;;;;;;10.12;71.67;99400.47;1087518;54;20030;-85
2022/11/15 06:24:47;;;;;;;9.18;4.70;;;;;;;10.10;71.80;99403.31;1087477;54;20039;-84
2022/11/15 06:25:51;;;;;;;7.93;4.90;;;;;;;10.11;71.76;99404.97;1087494;54;20035;-83
2022/11/15 06:26:53;;;;;;;8.05;5.13;;;;;;;10.13;71.84;99402.97;1087407;54;20062;-84
2022/11/15 06:27:59;;;;;;;16.17;5.85;;;;;;;10.09;71.98;99411.47;1087453;54;20685;-85
2022/11/15 06:29:05;;;;;;;9.98;5.53;;;;;;;10.06;72.01;99409.97;1088010;46;20732;-84
2022/11/15 06:30:08;;;;;;;8.65;5.35;;;;;;;10.10;72.05;99406.00;1088472;46;20019;-85
2022/11/15 06:31:13;;;;;;;9.65;5.18;;;;;;;10.08;72.03;99402.63;1087343;54;20026;-83
2022/11/15 06:32:15;;;;;;;11.13;4.85;;;;;;;10.11;72.04;99409.47;1086953;54;20057;-84
2022/11/15 06:33:19;;;;;;;13.18;5.05;;;;;;;10.14;72.14;99410.00;1086865;54;21257;-84
2022/11/15 06:34:20;;;;;;;12.30;5.35;;;;;;;10.16;71.85;99401.81;1087453;54;20035;-85
2022/11/15 06:35:24;;;;;;;9.30;4.85;;;;;;;10.18;71.86;99404.34;1087360;54;20058;-84
2022/11/15 06:36:29;;;;;;;10.73;5.10;;;;;;;10.17;71.78;99402.69;1087319;54;20304;-84
2022/11/15 06:37:30;;;;;;;9.45;4.78;;;;;;;10.16;72.01;99399.16;1092293;39;20629;-85
2022/11/15 06:38:37;;;;;;;10.68;5.40;;;;;;;10.20;72.05;99408.53;1087430;54;20040;-84
2022/11/15 06:39:39;;;;;;;9.32;5.28;;;;;;;10.18;72.15;99407.03;1087412;54;20034;-85
2022/11/15 06:40:43;;;;;;;9.07;5.10;;;;;;;10.22;72.20;99403.03;1087454;54;20030;-85
2022/11/15 06:41:44;;;;;;;10.23;5.35;;;;;;;10.22;72.20;99403.03;1087335;54;20062;-83
2022/11/15 06:42:49;;;;;;;11.95;5.95;;;;;;;10.20;72.11;99407.72;1087373;54;20620;-85
2022/11/15 06:43:53;;;;;;;9.38;5.78;;;;;;;10.18;72.48;99409.69;1087398;54;20035;-85
2022/11/15 06:44:54;;;;;;;9.57;5.40;;;;;;;10.11;72.72;99415.66;1087371;54;20064;-86
2022/11/15 06:46:00;;;;;;;10.23;6.20;;;;;;;10.17;72.33;99413.34;1087732;46;20042;-84
2022/11/15 06:47:01;;;;;;;11.02;5.22;;;;;;;10.17;72.49;99413.34;1087441;54;20010;-84
2022/11/15 06:48:05;;;;;;;9.88;5.78;;;;;;;10.16;72.35;99417.84;1087353;54;20040;-84
2022/11/15 06:49:07;;;;;;;12.45;5.47;;;;;;;10.15;72.76;99419.69;1087404;54;20035;-86
2022/11/15 06:50:12;;;;;;;16.20;5.63;;;;;;;10.13;72.60;99419.00;1087372;54;20038;-85
2022/11/15 06:51:13;;;;;;;12.43;5.90;;;;;;;10.10;73.04;99419.34;1087404;54;20050;-85
2022/11/15 06:52:18;;;;;;;15.45;5.97;;;;;;;10.02;73.00;99421.94;1087502;54;20041;-84
2022/11/15 06:53:19;;;;;;;11.73;5.53;;;;;;;10.06;73.08;99417.13;1087520;54;20037;-83
2022/11/15 06:54:26;;;;;;;20.13;6.80;;;;;;;10.02;73.20;99427.28;1087462;54;20030;-85
2022/11/15 06:55:27;;;;;;;13.32;5.55;;;;;;;9.97;73.31;99425.06;1088185;46;20776;-85
2022/11/15 06:56:32;;;;;;;10.43;5.38;;;;;;;10.03;73.16;99418.28;1087436;54;20040;-84
2022/11/15 06:57:33;;;;;;;16.27;6.30;;;;;;;10.01;73.35;99425.63;1087442;54;20046;-84
2022/11/15 06:58:38;;;;;;;10.88;5.65;;;;;;;9.99;73.15;99423.09;1087393;54;20030;-84
2022/11/15 06:59:39;;;;;;;12.73;5.35;;;;;;;9.96;73.54;99425.22;1087512;54;20061;-85
2022/11/15 07:00:43;;;;;;;16.55;6.28;;;;;;;9.92;73.67;99423.88;1092160;39;20819;-85
2022/11/15 07:01:45;;;;;;;11.93;5.47;;;;;;;9.92;73.63;99423.88;1087379;54;20038;-84
2022/11/15 07:02:49;;;;;;;13.23;6.20;;;;;;;9.92;73.71;99426.56;1087467;54;20304;-85
2022/11/15 07:03:53;;;;;;;21.60;6.45;;;;;;;9.93;73.52;99428.22;1087437;54;20034;-83
2022/11/15 07:04:55;;;;;;;16.48;6.15;;;;;;;9.84;74.25;99430.00;1087570;46;20034;-84
2022/11/15 07:06:00;;;;;;;17.25;6.63;;;;;;;9.80;74.50;99423.28;1087382;54;20023;-85
2022/11/15 07:07:01;;;;;;;14.80;6.88;;;;;;;9.74;74.40;99422.06;1087497;54;20069;-86
2022/11/15 07:08:06;;;;;;;17.38;7.10;;;;;;;9.68;74.91;99420.03;1087321;54;20030;-84
2022/11/15 07:09:10;;;;;;;21.55;6.63;;;;;;;9.65;75.03;99414.97;1087402;54;20039;-85
2022/11/15 07:10:15;;;;;;;18.08;7.20;;;;;;;9.59;75.38;99420.94;1087441;54;20717;-84
2022/11/15 07:11:19;;;;;;;12.23;6.45;;;;;;;9.60;75.43;99415.44;1087355;54;20015;-84
2022/11/15 07:12:21;;;;;;;10.60;5.88;;;;;;;9.65;75.29;99420.31;1087760;46;20057;-84
2022/11/15 07:13:27;;;;;;;12.18;5.80;;;;;;;9.72;75.16;99421.41;1087383;54;20033;-83
2022/11/15 07:14:28;;;;;;;10.38;5.65;;;;;;;9.74;74.72;99424.72;1088891;39;21048;-85
2022/11/15 07:15:32;;;;;;;9.50;4.95;;;;;;;9.79;74.68;99422.44;1087439;54;20053;-84